首页
METAR-TAF:

METAR-TAF

机场 :

克利馬內, 莫桑比克

纬度: 17-53S, 经度: 036-53E, 海拔: 6米

当前天气观测

该预报发布于51分钟前的17:00 UTC
风速6节,风向东转东北
温度 23°C
湿度 83%
气压 1017 hPa
能见度10公里或以上
少量云层高于2000英尺

METAR: FQQL 241700Z 07006KT 9999 FEW020 23/20 Q1017

时间: 19:51 (17:51 UTC)

预报

该预报发布于1小时和51分钟前的16:00 UTC
预报有效从24日的 18点(UTC)到 25日的 18点(UTC)
风速6节,风向
能见度10公里或以上
少量云层高于2000英尺
成为
从 25日的 00点(UTC)到 25日的 02点(UTC)
风速8节,风向北转西北
成为
从 25日的 06点(UTC)到 25日的 08点(UTC)
风速8节,风向南转南东

TAF: FQQL 241600Z 2418/2518 08006KT 9999 FEW020 TX30/2513Z TN17/2502Z BECMG 2500/2502 33008KT BECMG 2506/2508 15008KT

超过4000个机场的气象观测和天气预报(METAR&TAF报告)。

可查询的气象台以黄色和红色小点在地图上表示。

将鼠标移到小点上方,可查看气象台名称。

然后点击查看天气观测和预报。

如需切换地图:点击带黑十字的绿色按钮放大地图;点击带横线的绿色按钮缩小地图;或者点击绿色箭头查看邻近地区的地图。


METAR-TAF: